createdAt,value
2023-03-05T00:04:42.683Z,-1.68
2023-03-05T00:09:45.411Z,-1.71
2023-03-05T00:14:48.405Z,-1.73
2023-03-05T00:19:51.176Z,-1.74
2023-03-05T00:24:54.019Z,-1.74
2023-03-05T00:29:56.896Z,-1.75
2023-03-05T00:34:59.662Z,-1.76
2023-03-05T00:40:03.543Z,-1.75
2023-03-05T00:45:09.361Z,-1.77
2023-03-05T00:50:12.303Z,-1.80
2023-03-05T00:55:15.103Z,-1.82
2023-03-05T01:00:18.147Z,-1.84
2023-03-05T01:05:21.337Z,-1.87
2023-03-05T01:10:29.309Z,-1.92
2023-03-05T01:15:32.082Z,-1.94
2023-03-05T01:20:34.972Z,-1.98
2023-03-05T01:25:38.080Z,-2.02
2023-03-05T01:30:40.840Z,-2.05
2023-03-05T01:35:47.972Z,-2.07
2023-03-05T01:40:51.376Z,-2.11
2023-03-05T01:46:13.475Z,-2.14
2023-03-05T01:51:19.034Z,-2.14
2023-03-05T01:56:22.330Z,-2.15
2023-03-05T02:01:25.163Z,-2.18
2023-03-05T02:06:28.718Z,-2.22
2023-03-05T02:11:32.635Z,-2.25
2023-03-05T02:16:37.298Z,-2.28
2023-03-05T02:21:48.045Z,-2.29
2023-03-05T02:26:51.036Z,-2.34
2023-03-05T02:31:54.065Z,-2.36
2023-03-05T02:36:57.114Z,-2.38
2023-03-05T02:41:59.944Z,-2.38
2023-03-05T02:47:02.656Z,-2.42
2023-03-05T02:52:05.724Z,-2.42
2023-03-05T02:57:08.650Z,-2.44
2023-03-05T03:02:11.788Z,-2.47
2023-03-05T03:07:16.314Z,-2.48
2023-03-05T03:12:19.111Z,-2.49
2023-03-05T03:17:21.881Z,-2.49
2023-03-05T03:22:26.548Z,-2.46
2023-03-05T03:27:29.787Z,-2.44
2023-03-05T03:32:34.183Z,-2.41
2023-03-05T03:37:37.036Z,-2.39
2023-03-05T03:42:39.977Z,-2.35
2023-03-05T03:47:43.554Z,-2.29
2023-03-05T03:52:46.519Z,-2.24
2023-03-05T03:57:49.263Z,-2.19
2023-03-05T04:02:51.978Z,-2.18
2023-03-05T04:07:55.205Z,-1.91
2023-03-05T04:12:57.960Z,0.11
2023-03-05T04:18:00.966Z,-0.69
2023-03-05T04:23:03.711Z,-1.36
2023-03-05T04:28:06.490Z,-1.71
2023-03-05T04:33:09.254Z,-1.29
2023-03-05T04:38:12.317Z,1.95
2023-03-05T04:43:15.074Z,0.54
2023-03-05T04:48:18.982Z,-0.71
2023-03-05T04:53:21.725Z,-1.39
2023-03-05T04:58:24.449Z,-1.76
2023-03-05T05:03:27.286Z,-1.62
2023-03-05T05:08:30.130Z,2.07
2023-03-05T05:13:34.730Z,2.05
2023-03-05T05:18:37.546Z,0.12
2023-03-05T05:23:40.316Z,-0.86
2023-03-05T05:28:44.095Z,-1.46
2023-03-05T05:33:49.670Z,-1.84
2023-03-05T05:38:52.686Z,-2.01
2023-03-05T05:43:55.547Z,0.39
2023-03-05T05:48:58.321Z,0.27
2023-03-05T05:54:01.178Z,-0.78
2023-03-05T05:59:03.981Z,-1.34
2023-03-05T06:04:06.781Z,-1.38
2023-03-05T06:09:09.661Z,0.82
2023-03-05T06:14:13.313Z,-0.34
2023-03-05T06:19:16.545Z,-1.07
2023-03-05T06:24:19.551Z,2.21
2023-03-05T06:29:22.488Z,4.01
2023-03-05T06:34:25.636Z,1.63
2023-03-05T06:39:28.360Z,0.10
2023-03-05T06:44:31.649Z,-0.72
2023-03-05T06:49:34.699Z,1.13
2023-03-05T06:54:38.249Z,4.68
2023-03-05T06:59:41.017Z,3.26
2023-03-05T07:04:43.787Z,1.27
2023-03-05T07:09:48.180Z,0.16
2023-03-05T07:14:51.403Z,-0.44
2023-03-05T07:19:54.132Z,0.21
2023-03-05T07:24:57.117Z,1.93
2023-03-05T07:29:59.873Z,0.79
2023-03-05T07:35:03.515Z,0.26
2023-03-05T07:40:07.401Z,0.07
2023-03-05T07:45:10.579Z,2.41
2023-03-05T07:50:13.393Z,3.29
2023-03-05T07:55:16.299Z,2.16
2023-03-05T08:00:19.329Z,1.65
2023-03-05T08:05:22.183Z,1.44
2023-03-05T08:10:25.656Z,1.48
2023-03-05T08:15:28.622Z,1.54
2023-03-05T08:20:31.661Z,1.50
2023-03-05T08:25:34.744Z,1.42
2023-03-05T08:30:40.583Z,1.55
2023-03-05T08:35:44.135Z,1.70
2023-03-05T08:40:48.156Z,1.91
2023-03-05T08:45:51.705Z,1.93
2023-03-05T08:50:54.709Z,2.03
2023-03-05T08:55:59.087Z,2.20
2023-03-05T09:01:02.624Z,2.36
2023-03-05T09:06:08.591Z,2.49
2023-03-05T09:11:14.079Z,2.66
2023-03-05T09:16:19.140Z,2.73
2023-03-05T09:21:22.028Z,2.72
2023-03-05T09:26:25.050Z,2.71
2023-03-05T09:31:29.134Z,2.73
2023-03-05T09:36:33.249Z,2.81
2023-03-05T09:41:48.474Z,2.92
2023-03-05T09:46:55.705Z,2.97
2023-03-05T09:52:23.363Z,3.04
2023-03-05T09:57:39.082Z,3.03
2023-03-05T10:02:50.641Z,3.10
2023-03-05T10:07:58.300Z,3.29
2023-03-05T10:13:11.821Z,3.54
2023-03-05T10:18:47.366Z,3.68
2023-03-05T10:24:08.420Z,3.93
2023-03-05T10:29:14.178Z,4.45
2023-03-05T10:34:42.302Z,4.57
2023-03-05T10:40:20.436Z,4.57
2023-03-05T10:45:28.928Z,4.11
2023-03-05T10:50:38.445Z,3.66
2023-03-05T10:55:42.095Z,3.33
2023-03-05T11:01:05.973Z,3.15
2023-03-05T11:06:13.566Z,4.39
2023-03-05T11:11:41.471Z,6.32
2023-03-05T11:16:50.893Z,8.03
2023-03-05T11:22:22.998Z,8.84
2023-03-05T11:27:44.739Z,9.00
2023-03-05T11:32:47.505Z,9.47
2023-03-05T11:38:00.735Z,9.34
2023-03-05T11:43:04.651Z,8.23
2023-03-05T11:48:36.741Z,6.63
2023-03-05T11:53:39.722Z,5.57
2023-03-05T11:58:58.974Z,5.20
2023-03-05T12:04:04.051Z,4.57
2023-03-05T12:09:21.438Z,3.83
2023-03-05T12:14:39.050Z,3.30
2023-03-05T12:20:12.341Z,5.06
2023-03-05T12:25:32.484Z,7.71
2023-03-05T12:30:37.621Z,8.43
2023-03-05T12:35:41.256Z,10.74
2023-03-05T12:40:45.820Z,13.26
2023-03-05T12:45:48.872Z,14.11
2023-03-05T12:50:57.793Z,12.07
2023-03-05T12:56:14.353Z,9.95
2023-03-05T13:01:46.359Z,8.99
2023-03-05T13:07:00.734Z,8.71
2023-03-05T13:12:12.112Z,7.76
2023-03-05T13:17:34.591Z,7.71
2023-03-05T13:22:39.021Z,7.65
2023-03-05T13:27:42.612Z,6.80
2023-03-05T13:32:45.476Z,5.96
2023-03-05T13:37:48.973Z,5.88
2023-03-05T13:42:57.058Z,6.08
2023-03-05T13:48:15.709Z,6.09
2023-03-05T13:53:38.821Z,5.94
2023-03-05T13:58:54.873Z,6.15
2023-03-05T14:04:06.003Z,5.94
2023-03-05T14:09:18.768Z,5.55
2023-03-05T14:14:23.554Z,5.83
2023-03-05T14:19:32.365Z,5.81
2023-03-05T14:24:36.828Z,5.64
2023-03-05T14:29:46.363Z,5.62
2023-03-05T14:34:55.313Z,5.57
2023-03-05T14:40:05.368Z,5.43
2023-03-05T14:45:27.774Z,5.46
2023-03-05T14:50:34.779Z,5.43
2023-03-05T14:55:38.625Z,5.05
2023-03-05T15:00:42.532Z,4.77
2023-03-05T15:05:50.928Z,4.42
2023-03-05T15:10:54.239Z,4.86
2023-03-05T15:15:58.634Z,6.38
2023-03-05T15:21:03.156Z,8.10
2023-03-05T15:26:08.586Z,10.21
2023-03-05T15:31:11.511Z,12.64
2023-03-05T15:36:14.374Z,13.18
2023-03-05T15:41:17.748Z,12.03
2023-03-05T15:46:20.934Z,11.05
2023-03-05T15:51:23.714Z,10.05
2023-03-05T15:56:26.507Z,8.66
2023-03-05T16:01:29.450Z,7.05
2023-03-05T16:06:34.199Z,5.70
2023-03-05T16:11:40.049Z,4.62
2023-03-05T16:16:43.995Z,3.82
2023-03-05T16:21:47.354Z,3.28
2023-03-05T16:26:50.059Z,2.77
2023-03-05T16:31:52.910Z,2.31
2023-03-05T16:36:56.149Z,1.97
2023-03-05T16:41:58.852Z,1.70
2023-03-05T16:47:02.641Z,1.48
2023-03-05T16:52:17.745Z,1.30
2023-03-05T16:57:24.282Z,1.14
2023-03-05T17:02:29.791Z,1.00
2023-03-05T17:07:32.548Z,0.87
2023-03-05T17:12:35.351Z,0.69
2023-03-05T17:17:39.089Z,2.17
2023-03-05T17:22:42.167Z,2.54
2023-03-05T17:27:44.912Z,1.49
2023-03-05T17:32:47.780Z,0.93
2023-03-05T17:37:51.983Z,0.98
2023-03-05T17:42:54.699Z,3.62
2023-03-05T17:47:58.807Z,2.35
2023-03-05T17:53:01.927Z,1.24
2023-03-05T17:58:04.715Z,1.85
2023-03-05T18:03:07.631Z,3.80
2023-03-05T18:08:10.422Z,2.17
2023-03-05T18:13:13.248Z,1.09
2023-03-05T18:18:18.149Z,1.94
2023-03-05T18:23:20.996Z,2.92
2023-03-05T18:28:25.921Z,1.46
2023-03-05T18:33:28.833Z,2.33
2023-03-05T18:38:32.225Z,3.81
2023-03-05T18:43:36.001Z,1.99
2023-03-05T18:48:38.759Z,1.02
2023-03-05T18:53:41.593Z,3.01
2023-03-05T18:58:44.985Z,2.10
2023-03-05T19:03:49.420Z,1.89
2023-03-05T19:08:58.741Z,3.41
2023-03-05T19:14:01.844Z,1.66
2023-03-05T19:19:16.750Z,2.25
2023-03-05T19:24:22.193Z,2.41
2023-03-05T19:29:27.127Z,1.02
2023-03-05T19:34:32.487Z,2.92
2023-03-05T19:39:35.414Z,2.73
2023-03-05T19:44:39.086Z,1.23
2023-03-05T19:49:42.057Z,2.04
2023-03-05T19:54:47.558Z,3.40
2023-03-05T19:59:53.741Z,1.50
2023-03-05T20:04:57.585Z,0.52
2023-03-05T20:10:00.952Z,2.51
2023-03-05T20:15:03.953Z,4.33
2023-03-05T20:20:09.781Z,2.25
2023-03-05T20:25:18.983Z,0.90
2023-03-05T20:30:22.228Z,1.01
2023-03-05T20:35:25.198Z,2.99
2023-03-05T20:40:28.050Z,1.35
2023-03-05T20:45:30.887Z,1.77
2023-03-05T20:50:34.269Z,2.86
2023-03-05T20:55:37.493Z,1.10
2023-03-05T21:00:41.409Z,2.39
2023-03-05T21:05:46.323Z,2.02
2023-03-05T21:10:49.500Z,1.07
2023-03-05T21:15:52.794Z,2.43
2023-03-05T21:20:55.602Z,1.06
2023-03-05T21:25:59.015Z,2.22
2023-03-05T21:31:14.429Z,3.37
2023-03-05T21:36:20.149Z,1.34
2023-03-05T21:41:23.832Z,1.10
2023-03-05T21:46:26.591Z,3.08
2023-03-05T21:51:38.477Z,1.49
2023-03-05T21:56:41.194Z,1.41
2023-03-05T22:01:44.335Z,4.42
2023-03-05T22:06:47.090Z,2.69
2023-03-05T22:11:49.828Z,1.00
2023-03-05T22:16:54.977Z,0.50
2023-03-05T22:21:58.146Z,2.69
2023-03-05T22:27:02.178Z,1.54
2023-03-05T22:32:05.215Z,0.34
2023-03-05T22:37:08.130Z,1.31
2023-03-05T22:42:10.939Z,4.61
2023-03-05T22:47:13.667Z,3.87
2023-03-05T22:52:19.217Z,1.82
2023-03-05T22:57:21.969Z,0.62
2023-03-05T23:02:25.012Z,1.20
2023-03-05T23:07:34.075Z,3.52
2023-03-05T23:12:40.332Z,1.78
2023-03-05T23:17:44.181Z,0.44
2023-03-05T23:22:48.901Z,1.75
2023-03-05T23:27:52.108Z,4.21
2023-03-05T23:33:08.305Z,2.27
2023-03-05T23:38:14.635Z,0.51
2023-03-05T23:43:19.024Z,0.88
2023-03-05T23:48:23.783Z,3.79
2023-03-05T23:53:29.696Z,2.01
2023-03-05T23:58:32.583Z,0.34
